Portada
METAR-TAF:

METAR-TAF

Aeroports :

Bangkok, Tailàndia

latitud: 13-54-45N, longitud: 100-36-24E, altitud: 4 m

Observació

L'informe es va fer fa 24 minuts, a les 11:30 UTC
Vent 6 kt del Est/Sud-Est
Temperatura 30°C
Humitat 55%
Pressió 1012 hPa
Visibilitat 10 km o més
Escasses núvols a una alçada de 3000 ft

METAR: VTBD 211130Z 11006KT 9999 FEW030 30/20 Q1012 NOSIG

Hora: 18:54 (11:54 UTC)

Pronòstic

L'informe es va fer fa 54 minuts, a les 11:00 UTC
Pronòstic vàlid del 21 a les 12 UTC al 22 a les 18 UTC
Vent 8 kt del Est
Visibilitat 10 km o més
Escasses núvols a una alçada de 3000 ft
Evolucionant progressivament
l' 21 a les 20 UTC al 21 a les 22 UTC
Vent 5 kt del Nord
Evolucionant progressivament
l' 22 a les 01 UTC al 22 a les 03 UTC
Vent 8 kt del Est

TAF: VTBD 211100Z 2112/2218 08008KT 9999 FEW030 BECMG 2120/2122 01005KT BECMG 2201/2203 08008KT

Observacions i pronòstics meteorològics de més de 4000 aeroports (METAR i TAF).

Les estacions disponibles són els punts grocs i vermells al mapa.

Posi el ratolí al punt desitjat per veure el nom de l'estació.

Feu clic per veure les observacions i els pronòstics meteorològics.

Per canviar el mapa: feu clic els botons verds amb una creu de color negre per apropar; al botó verd amb un guió per allunyar la imatge; o en les fletxes verdes per a mapes adjacents.


METAR-TAF: